createdAt,value
2023-02-18T00:00:59.186Z,999.57
2023-02-18T00:01:59.159Z,999.63
2023-02-18T00:02:59.152Z,999.69
2023-02-18T00:03:59.142Z,999.66
2023-02-18T00:04:59.146Z,999.66
2023-02-18T00:05:59.157Z,999.77
2023-02-18T00:06:59.111Z,999.71
2023-02-18T00:07:59.099Z,999.72
2023-02-18T00:08:59.097Z,999.58
2023-02-18T00:09:59.090Z,999.61
2023-02-18T00:10:59.114Z,999.73
2023-02-18T00:11:59.071Z,999.72
2023-02-18T00:12:59.064Z,999.63
2023-02-18T00:13:59.070Z,999.76
2023-02-18T00:14:59.047Z,999.70
2023-02-18T00:15:59.051Z,999.76
2023-02-18T00:16:59.075Z,999.80
2023-02-18T00:17:59.029Z,999.71
2023-02-18T00:18:59.036Z,999.78
2023-02-18T00:19:59.024Z,999.86
2023-02-18T00:20:58.998Z,999.79
2023-02-18T00:21:59.025Z,999.79
2023-02-18T00:22:59.005Z,999.83
2023-02-18T00:23:58.986Z,999.82
2023-02-18T00:24:58.976Z,999.79
2023-02-18T00:25:58.971Z,999.78
2023-02-18T00:26:58.987Z,999.76
2023-02-18T00:27:58.955Z,999.73
2023-02-18T00:28:58.942Z,999.79
2023-02-18T00:29:58.996Z,999.80
2023-02-18T00:30:58.950Z,999.71
2023-02-18T00:31:59.050Z,999.80
2023-02-18T00:32:58.912Z,999.88
2023-02-18T00:33:58.911Z,999.79
2023-02-18T00:34:58.907Z,999.76
2023-02-18T00:35:58.886Z,999.80
2023-02-18T00:36:58.908Z,999.90
2023-02-18T00:37:58.872Z,999.88
2023-02-18T00:38:58.866Z,999.83
2023-02-18T00:39:58.861Z,999.81
2023-02-18T00:40:58.849Z,999.92
2023-02-18T00:41:58.858Z,999.91
2023-02-18T00:42:58.829Z,999.93
2023-02-18T00:43:58.831Z,999.91
2023-02-18T00:44:58.807Z,999.85
2023-02-18T00:45:59.894Z,999.80
2023-02-18T00:46:58.821Z,999.75
2023-02-18T00:47:58.797Z,999.73
2023-02-18T00:48:58.803Z,999.77
2023-02-18T00:49:58.772Z,999.78
2023-02-18T00:50:58.769Z,999.74
2023-02-18T00:51:58.782Z,999.71
2023-02-18T00:52:58.756Z,999.70
2023-02-18T00:53:58.751Z,999.74
2023-02-18T00:54:58.737Z,999.71
2023-02-18T00:55:58.735Z,999.68
2023-02-18T00:56:58.753Z,999.71
2023-02-18T00:57:58.763Z,999.62
2023-02-18T00:58:58.709Z,999.68
2023-02-18T00:59:58.699Z,999.69
2023-02-18T01:00:58.693Z,999.58
2023-02-18T01:01:58.735Z,999.66
2023-02-18T01:02:58.675Z,999.69
2023-02-18T01:03:58.682Z,999.62
2023-02-18T01:04:58.702Z,999.66
2023-02-18T01:05:58.654Z,999.60
2023-02-18T01:06:58.686Z,999.73
2023-02-18T01:07:58.646Z,999.78
2023-02-18T01:08:58.641Z,999.69
2023-02-18T01:09:58.630Z,999.81
2023-02-18T01:10:58.642Z,999.81
2023-02-18T01:11:58.649Z,999.81
2023-02-18T01:12:58.631Z,999.68
2023-02-18T01:13:58.601Z,999.68
2023-02-18T01:14:58.594Z,999.70
2023-02-18T01:15:58.617Z,999.78
2023-02-18T01:16:58.613Z,999.65
2023-02-18T01:17:58.564Z,999.74
2023-02-18T01:18:58.571Z,999.68
2023-02-18T01:19:58.560Z,999.64
2023-02-18T01:20:58.582Z,999.66
2023-02-18T01:21:58.590Z,999.69
2023-02-18T01:22:58.536Z,999.72
2023-02-18T01:23:58.538Z,999.69
2023-02-18T01:24:58.538Z,999.69
2023-02-18T01:25:58.510Z,999.68
2023-02-18T01:26:58.536Z,999.73
2023-02-18T01:27:58.493Z,999.75
2023-02-18T01:28:58.487Z,999.75
2023-02-18T01:29:58.529Z,999.68
2023-02-18T01:30:58.484Z,999.75
2023-02-18T01:31:58.580Z,999.69
2023-02-18T01:32:58.505Z,999.80
2023-02-18T01:33:58.465Z,999.78
2023-02-18T01:34:58.450Z,999.73
2023-02-18T01:35:58.441Z,999.63
2023-02-18T01:36:58.435Z,999.78
2023-02-18T01:37:58.447Z,999.84
2023-02-18T01:38:58.416Z,999.75
2023-02-18T01:39:58.458Z,999.78
2023-02-18T01:40:58.401Z,999.77
2023-02-18T01:41:58.387Z,999.75
2023-02-18T01:42:58.411Z,999.70
2023-02-18T01:43:58.367Z,999.73
2023-02-18T01:44:58.362Z,999.71
2023-02-18T01:45:58.357Z,999.62
2023-02-18T01:46:58.405Z,999.75
2023-02-18T01:47:58.373Z,999.61
2023-02-18T01:48:58.367Z,999.67
2023-02-18T01:49:58.322Z,999.75
2023-02-18T01:50:58.322Z,999.73
2023-02-18T01:51:58.306Z,999.74
2023-02-18T01:52:58.327Z,999.78
2023-02-18T01:53:58.309Z,999.59
2023-02-18T01:54:58.297Z,999.67
2023-02-18T01:55:58.281Z,999.69
2023-02-18T01:56:58.268Z,999.56
2023-02-18T01:57:58.286Z,999.58
2023-02-18T01:58:58.261Z,999.58
2023-02-18T01:59:58.248Z,999.54
2023-02-18T02:00:58.275Z,999.47
2023-02-18T02:01:58.354Z,999.56
2023-02-18T02:02:58.247Z,999.50
2023-02-18T02:03:58.218Z,999.56
2023-02-18T02:04:58.206Z,999.50
2023-02-18T02:05:58.230Z,999.62
2023-02-18T02:06:58.193Z,999.57
2023-02-18T02:07:58.214Z,999.58
2023-02-18T02:08:58.174Z,999.58
2023-02-18T02:09:58.164Z,999.58
2023-02-18T02:10:58.166Z,999.60
2023-02-18T02:11:58.155Z,999.71
2023-02-18T02:12:58.171Z,999.71
2023-02-18T02:13:58.141Z,999.67
2023-02-18T02:14:58.133Z,999.69
2023-02-18T02:15:58.143Z,999.61
2023-02-18T02:16:58.119Z,999.66
2023-02-18T02:17:58.148Z,999.75
2023-02-18T02:18:58.104Z,999.71
2023-02-18T02:19:58.098Z,999.76
2023-02-18T02:20:58.083Z,999.70
2023-02-18T02:21:58.092Z,999.64
2023-02-18T02:22:58.102Z,999.71
2023-02-18T02:23:58.069Z,999.64
2023-02-18T02:24:58.052Z,999.59
2023-02-18T02:25:58.055Z,999.59
2023-02-18T02:26:58.038Z,999.57
2023-02-18T02:27:58.058Z,999.54
2023-02-18T02:28:58.027Z,999.59
2023-02-18T02:29:58.119Z,999.61
2023-02-18T02:30:58.058Z,999.55
2023-02-18T02:31:58.130Z,999.58
2023-02-18T02:32:58.034Z,999.60
2023-02-18T02:33:57.995Z,999.66
2023-02-18T02:34:57.979Z,999.70
2023-02-18T02:35:57.971Z,999.64
2023-02-18T02:36:57.968Z,999.60
2023-02-18T02:37:57.997Z,999.54
2023-02-18T02:38:58.020Z,999.52
2023-02-18T02:39:57.942Z,999.46
2023-02-18T02:40:57.937Z,999.46
2023-02-18T02:41:57.921Z,999.44
2023-02-18T02:42:57.921Z,999.54
2023-02-18T02:43:57.932Z,999.50
2023-02-18T02:44:57.931Z,999.53
2023-02-18T02:45:57.963Z,999.57
2023-02-18T02:46:57.900Z,999.53
2023-02-18T02:47:57.892Z,999.59
2023-02-18T02:48:57.906Z,999.48
2023-02-18T02:49:57.875Z,999.60
2023-02-18T02:50:57.861Z,999.47
2023-02-18T02:51:57.871Z,999.54
2023-02-18T02:52:57.875Z,999.64
2023-02-18T02:53:57.858Z,999.50
2023-02-18T02:54:57.960Z,999.57
2023-02-18T02:55:57.829Z,999.63
2023-02-18T02:56:57.831Z,999.63
2023-02-18T02:57:57.831Z,999.49
2023-02-18T02:58:57.834Z,999.50
2023-02-18T02:59:57.792Z,999.42
2023-02-18T03:00:57.846Z,999.50
2023-02-18T03:01:57.785Z,999.60
2023-02-18T03:02:57.851Z,999.61
2023-02-18T03:03:57.801Z,999.42
2023-02-18T03:04:57.760Z,999.46
2023-02-18T03:05:57.761Z,999.49
2023-02-18T03:06:57.738Z,999.60
2023-02-18T03:07:57.732Z,999.60
2023-02-18T03:08:57.749Z,999.60
2023-02-18T03:09:57.720Z,999.67
2023-02-18T03:10:57.717Z,999.70
2023-02-18T03:11:57.696Z,999.69
2023-02-18T03:12:57.709Z,999.73
2023-02-18T03:13:57.710Z,999.59
2023-02-18T03:14:57.697Z,999.66
2023-02-18T03:15:57.699Z,999.63
2023-02-18T03:16:57.701Z,999.58
2023-02-18T03:17:57.669Z,999.58
2023-02-18T03:18:57.680Z,999.62
2023-02-18T03:19:57.648Z,999.58
2023-02-18T03:20:57.645Z,999.60
2023-02-18T03:21:57.641Z,999.64
2023-02-18T03:22:57.626Z,999.62
2023-02-18T03:23:57.645Z,999.52
2023-02-18T03:24:57.622Z,999.58
2023-02-18T03:25:57.598Z,999.60
2023-02-18T03:26:57.599Z,999.55
2023-02-18T03:27:57.579Z,999.60
2023-02-18T03:28:57.608Z,999.63
2023-02-18T03:29:57.608Z,999.52
2023-02-18T03:30:57.579Z,999.56
2023-02-18T03:31:57.621Z,999.51
2023-02-18T03:32:57.557Z,999.35
2023-02-18T03:33:57.568Z,999.45
2023-02-18T03:34:57.523Z,999.48
2023-02-18T03:35:57.536Z,999.31
2023-02-18T03:36:57.521Z,999.37
2023-02-18T03:37:57.508Z,999.35
2023-02-18T03:38:57.527Z,999.38
2023-02-18T03:39:57.491Z,999.31
2023-02-18T03:40:57.494Z,999.32
2023-02-18T03:41:57.483Z,999.40
2023-02-18T03:42:57.480Z,999.34
2023-02-18T03:43:57.492Z,999.40
2023-02-18T03:44:57.460Z,999.38
2023-02-18T03:45:57.511Z,999.46
2023-02-18T03:46:57.440Z,999.46
2023-02-18T03:47:57.442Z,999.34
2023-02-18T03:48:57.460Z,999.47
2023-02-18T03:49:57.416Z,999.34
2023-02-18T03:50:57.430Z,999.45
2023-02-18T03:51:57.419Z,999.28
2023-02-18T03:52:57.403Z,999.45
2023-02-18T03:53:57.408Z,999.41
2023-02-18T03:54:57.372Z,999.28
2023-02-18T03:55:57.379Z,999.36
2023-02-18T03:56:57.358Z,999.35
2023-02-18T03:57:57.354Z,999.28
2023-02-18T03:58:57.376Z,999.36
2023-02-18T03:59:57.341Z,999.39
2023-02-18T04:00:57.391Z,999.26
2023-02-18T04:01:57.312Z,999.26
2023-02-18T04:02:57.306Z,999.21
2023-02-18T04:03:57.418Z,999.19
2023-02-18T04:04:57.302Z,999.17
2023-02-18T04:05:57.284Z,999.12
2023-02-18T04:06:57.294Z,999.20
2023-02-18T04:07:57.276Z,999.17
2023-02-18T04:08:57.316Z,999.12
2023-02-18T04:09:57.267Z,999.08
2023-02-18T04:10:57.243Z,999.14
2023-02-18T04:11:57.242Z,999.11
2023-02-18T04:12:57.231Z,999.16
2023-02-18T04:13:57.244Z,999.12
2023-02-18T04:14:58.227Z,999.11
2023-02-18T04:15:57.214Z,999.10
2023-02-18T04:16:57.252Z,999.07
2023-02-18T04:17:57.196Z,999.07
2023-02-18T04:18:57.218Z,999.07
2023-02-18T04:19:57.191Z,999.02
2023-02-18T04:20:57.177Z,999.00
2023-02-18T04:21:57.194Z,999.00
2023-02-18T04:22:57.179Z,999.02
2023-02-18T04:23:57.176Z,998.99
2023-02-18T04:24:57.144Z,998.97
2023-02-18T04:25:57.131Z,998.82
2023-02-18T04:26:57.127Z,998.99
2023-02-18T04:27:57.125Z,998.93
2023-02-18T04:28:57.143Z,998.87
2023-02-18T04:29:57.162Z,998.85
2023-02-18T04:30:57.117Z,998.79
2023-02-18T04:31:57.269Z,998.81
2023-02-18T04:32:57.085Z,998.73
2023-02-18T04:33:57.076Z,998.85
2023-02-18T04:34:57.093Z,998.81
2023-02-18T04:35:57.059Z,998.82
2023-02-18T04:36:57.051Z,998.83
2023-02-18T04:37:57.066Z,998.78
2023-02-18T04:38:57.034Z,998.70
2023-02-18T04:39:57.060Z,998.80
2023-02-18T04:40:57.024Z,998.76
2023-02-18T04:41:57.022Z,998.80
2023-02-18T04:42:57.005Z,998.80
2023-02-18T04:43:57.006Z,998.75
2023-02-18T04:44:57.022Z,998.68
2023-02-18T04:45:57.149Z,998.67
2023-02-18T04:46:57.023Z,998.78
2023-02-18T04:47:56.970Z,998.74
2023-02-18T04:48:56.969Z,998.77
2023-02-18T04:49:56.980Z,998.68
2023-02-18T04:50:57.001Z,998.68
2023-02-18T04:51:56.937Z,998.69
2023-02-18T04:52:56.932Z,998.59
2023-02-18T04:53:56.946Z,998.64
2023-02-18T04:54:56.938Z,998.72
2023-02-18T04:55:57.910Z,998.63
2023-02-18T04:56:56.906Z,998.64
2023-02-18T04:57:56.910Z,998.63
2023-02-18T04:58:56.895Z,998.66
2023-02-18T04:59:56.919Z,998.66
2023-02-18T05:00:56.868Z,998.71
2023-02-18T05:01:56.873Z,998.72
2023-02-18T05:02:56.860Z,998.70
2023-02-18T05:03:56.891Z,998.76
2023-02-18T05:04:56.883Z,998.69
2023-02-18T05:05:56.861Z,998.69
2023-02-18T05:06:56.839Z,998.66
2023-02-18T05:07:56.818Z,998.62
2023-02-18T05:08:57.814Z,998.62
2023-02-18T05:09:56.839Z,998.67
2023-02-18T05:10:56.813Z,998.61
2023-02-18T05:11:56.794Z,998.52
2023-02-18T05:12:56.787Z,998.50
2023-02-18T05:13:56.777Z,998.46
2023-02-18T05:14:56.806Z,998.45
2023-02-18T05:15:56.826Z,998.44
2023-02-18T05:16:56.754Z,998.50
2023-02-18T05:17:56.751Z,998.46
2023-02-18T05:18:56.749Z,998.55
2023-02-18T05:19:56.766Z,998.52
2023-02-18T05:20:56.729Z,998.41
2023-02-18T05:21:56.719Z,998.43
2023-02-18T05:22:56.719Z,998.41
2023-02-18T05:23:56.701Z,998.52
2023-02-18T05:24:56.734Z,998.54
2023-02-18T05:25:56.716Z,998.49
2023-02-18T05:26:56.686Z,998.54
2023-02-18T05:27:56.670Z,998.46
2023-02-18T05:28:56.671Z,998.54
2023-02-18T05:29:56.721Z,998.52
2023-02-18T05:30:56.682Z,998.48
2023-02-18T05:31:56.673Z,998.47
2023-02-18T05:32:56.643Z,998.42
2023-02-18T05:33:56.631Z,998.42
2023-02-18T05:34:56.667Z,998.42
2023-02-18T05:35:56.612Z,998.33
2023-02-18T05:36:56.605Z,998.45
2023-02-18T05:37:56.601Z,998.34
2023-02-18T05:38:56.596Z,998.44
2023-02-18T05:39:56.617Z,998.50
2023-02-18T05:40:56.568Z,998.42
2023-02-18T05:41:56.571Z,998.40
2023-02-18T05:42:56.554Z,998.37
2023-02-18T05:43:56.564Z,998.26
2023-02-18T05:44:56.568Z,998.16
2023-02-18T05:45:56.529Z,998.19
2023-02-18T05:46:56.531Z,998.13
2023-02-18T05:47:56.530Z,998.20
2023-02-18T05:48:56.525Z,998.25
2023-02-18T05:49:56.532Z,998.22
2023-02-18T05:50:56.495Z,998.24
2023-02-18T05:51:56.485Z,998.28
2023-02-18T05:52:56.479Z,998.24
2023-02-18T05:53:56.481Z,998.20
2023-02-18T05:54:56.494Z,998.16
2023-02-18T05:55:56.464Z,998.15
2023-02-18T05:56:56.455Z,998.13
2023-02-18T05:57:56.458Z,998.18
2023-02-18T05:58:56.438Z,998.10
2023-02-18T05:59:56.466Z,998.13
2023-02-18T06:00:56.433Z,998.05
2023-02-18T06:01:56.421Z,998.05
2023-02-18T06:02:56.438Z,998.01
2023-02-18T06:03:56.395Z,998.04
2023-02-18T06:04:56.390Z,998.07
2023-02-18T06:05:56.437Z,997.96
2023-02-18T06:06:56.379Z,997.99
2023-02-18T06:07:56.851Z,998.04
2023-02-18T06:08:57.364Z,998.07
2023-02-18T06:09:56.350Z,998.12
2023-02-18T06:10:56.396Z,997.95
2023-02-18T06:11:56.340Z,997.99
2023-02-18T06:12:56.334Z,998.03
2023-02-18T06:13:56.341Z,998.04
2023-02-18T06:14:56.326Z,997.94
2023-02-18T06:15:56.354Z,998.01
2023-02-18T06:16:56.304Z,998.01
2023-02-18T06:17:56.298Z,998.04
2023-02-18T06:18:56.284Z,998.08
2023-02-18T06:19:56.277Z,998.03
2023-02-18T06:20:56.301Z,998.00
2023-02-18T06:21:56.266Z,998.08
2023-02-18T06:22:56.270Z,998.05
2023-02-18T06:23:56.263Z,998.10
2023-02-18T06:24:56.263Z,998.04
2023-02-18T06:25:56.265Z,998.00
2023-02-18T06:26:56.250Z,997.99
2023-02-18T06:27:56.216Z,997.98
2023-02-18T06:28:56.214Z,997.96
2023-02-18T06:29:56.203Z,997.91
2023-02-18T06:30:56.214Z,997.90
2023-02-18T06:31:56.285Z,997.83
2023-02-18T06:32:56.169Z,997.84
2023-02-18T06:33:56.173Z,997.88
2023-02-18T06:34:56.170Z,997.87
2023-02-18T06:35:56.187Z,997.84
2023-02-18T06:36:56.157Z,997.80
2023-02-18T06:37:56.136Z,997.86
2023-02-18T06:38:56.134Z,997.80
2023-02-18T06:39:56.126Z,997.88
2023-02-18T06:40:56.138Z,997.79
2023-02-18T06:41:56.104Z,997.72
2023-02-18T06:42:56.114Z,997.71
2023-02-18T06:43:56.100Z,997.75
2023-02-18T06:44:56.086Z,997.63
2023-02-18T06:45:56.113Z,997.74
2023-02-18T06:46:56.114Z,997.77
2023-02-18T06:47:56.061Z,997.66
2023-02-18T06:48:56.063Z,997.62
2023-02-18T06:49:56.050Z,997.76
2023-02-18T06:50:56.085Z,997.60
2023-02-18T06:51:56.033Z,997.62
2023-02-18T06:52:56.023Z,997.59
2023-02-18T06:53:56.024Z,997.62
2023-02-18T06:54:56.011Z,997.55
2023-02-18T06:55:56.040Z,997.53
2023-02-18T06:56:56.020Z,997.57
2023-02-18T06:57:55.987Z,997.53
2023-02-18T06:58:55.983Z,997.58
2023-02-18T06:59:55.969Z,997.55
2023-02-18T07:00:56.026Z,997.53
2023-02-18T07:01:56.005Z,997.45
2023-02-18T07:02:55.954Z,997.51
2023-02-18T07:03:56.036Z,997.48
2023-02-18T07:04:55.944Z,997.49
2023-02-18T07:05:55.932Z,997.44
2023-02-18T07:06:55.949Z,997.48
2023-02-18T07:07:55.936Z,997.47
2023-02-18T07:08:55.921Z,997.50
2023-02-18T07:09:55.901Z,997.48
2023-02-18T07:10:55.909Z,997.53
2023-02-18T07:11:55.913Z,997.53
2023-02-18T07:12:55.877Z,997.42
2023-02-18T07:13:55.866Z,997.53
2023-02-18T07:14:55.864Z,997.43
2023-02-18T07:15:55.865Z,997.43
2023-02-18T07:16:55.868Z,997.39
2023-02-18T07:17:55.849Z,997.41
2023-02-18T07:18:55.840Z,997.37
2023-02-18T07:19:55.833Z,997.38
2023-02-18T07:20:55.817Z,997.39
2023-02-18T07:21:55.826Z,997.39
2023-02-18T07:22:55.811Z,997.35
2023-02-18T07:23:55.805Z,997.34
2023-02-18T07:24:55.786Z,997.31
2023-02-18T07:25:55.773Z,997.20
2023-02-18T07:26:55.812Z,997.19
2023-02-18T07:27:55.766Z,997.24
2023-02-18T07:28:55.753Z,997.22
2023-02-18T07:29:55.745Z,997.17
2023-02-18T07:30:55.764Z,997.13
2023-02-18T07:31:55.797Z,997.08
2023-02-18T07:32:55.732Z,997.10
2023-02-18T07:33:55.722Z,997.11
2023-02-18T07:34:55.711Z,997.11
2023-02-18T07:35:55.703Z,997.20
2023-02-18T07:36:55.724Z,997.20
2023-02-18T07:37:55.690Z,997.16
2023-02-18T07:38:55.685Z,997.26
2023-02-18T07:39:55.667Z,997.25
2023-02-18T07:40:55.660Z,997.22
2023-02-18T07:41:55.686Z,997.31
2023-02-18T07:42:55.648Z,997.30
2023-02-18T07:43:55.668Z,997.27
2023-02-18T07:44:55.630Z,997.30
2023-02-18T07:45:55.669Z,997.29
2023-02-18T07:46:55.633Z,997.25
2023-02-18T07:47:55.609Z,997.30
2023-02-18T07:48:55.605Z,997.14
2023-02-18T07:49:55.592Z,997.18
2023-02-18T07:50:55.588Z,997.24
2023-02-18T07:51:55.603Z,997.22
2023-02-18T07:52:55.568Z,997.26
2023-02-18T07:53:55.560Z,997.24
2023-02-18T07:54:55.569Z,997.24
2023-02-18T07:55:55.549Z,997.22
2023-02-18T07:56:55.568Z,997.23
2023-02-18T07:57:55.534Z,997.19
2023-02-18T07:58:55.556Z,997.33
2023-02-18T07:59:55.534Z,997.39
2023-02-18T08:00:55.509Z,997.31
2023-02-18T08:01:55.632Z,997.30
2023-02-18T08:02:55.485Z,997.39
2023-02-18T08:03:56.517Z,997.30
2023-02-18T08:04:55.481Z,997.44
2023-02-18T08:05:55.466Z,997.35
2023-02-18T08:06:55.502Z,997.41
2023-02-18T08:07:55.457Z,997.40
2023-02-18T08:08:55.460Z,997.46
2023-02-18T08:09:55.465Z,997.36
2023-02-18T08:10:55.450Z,997.37
2023-02-18T08:11:55.472Z,997.33
2023-02-18T08:12:55.431Z,997.32
2023-02-18T08:13:55.424Z,997.34
2023-02-18T08:14:55.425Z,997.37
2023-02-18T08:15:55.397Z,997.34
2023-02-18T08:16:55.527Z,997.22
2023-02-18T08:17:55.388Z,997.27
2023-02-18T08:18:55.389Z,997.29
2023-02-18T08:19:55.377Z,997.28
2023-02-18T08:20:55.387Z,997.33
2023-02-18T08:21:55.404Z,997.27
2023-02-18T08:22:55.366Z,997.27
2023-02-18T08:23:55.349Z,997.29
2023-02-18T08:24:55.351Z,997.25
2023-02-18T08:25:55.342Z,997.22
2023-02-18T08:27:00.852Z,997.19
2023-02-18T08:27:57.347Z,997.25
2023-02-18T08:28:55.305Z,997.16
2023-02-18T08:29:55.316Z,997.19
2023-02-18T08:30:55.324Z,997.16
2023-02-18T08:31:55.366Z,997.09
2023-02-18T08:32:55.317Z,997.20
2023-02-18T08:33:55.282Z,997.09
2023-02-18T08:34:55.280Z,997.15
2023-02-18T08:35:55.273Z,997.09
2023-02-18T08:36:55.266Z,997.07
2023-02-18T08:37:56.213Z,997.12
2023-02-18T08:38:55.237Z,997.05
2023-02-18T08:39:55.237Z,996.99
2023-02-18T08:40:55.219Z,997.07
2023-02-18T08:41:55.227Z,997.14
2023-02-18T08:42:55.250Z,997.12
2023-02-18T08:43:55.206Z,997.14
2023-02-18T08:44:55.195Z,997.10
2023-02-18T08:45:55.188Z,997.17
2023-02-18T08:46:55.282Z,997.16
2023-02-18T08:48:16.886Z,997.13
2023-02-18T08:48:56.156Z,997.13
2023-02-18T08:49:55.155Z,997.03
2023-02-18T08:50:55.150Z,997.12
2023-02-18T08:51:55.149Z,997.13
2023-02-18T08:52:55.198Z,997.16
2023-02-18T08:53:55.147Z,997.13
2023-02-18T08:54:55.120Z,997.02
2023-02-18T08:55:55.102Z,997.08
2023-02-18T08:56:55.098Z,997.12
2023-02-18T08:57:55.130Z,997.08
2023-02-18T08:58:56.085Z,997.00
2023-02-18T08:59:55.097Z,996.99
2023-02-18T09:00:55.074Z,997.05
2023-02-18T09:01:55.064Z,997.09
2023-02-18T09:02:55.076Z,997.02
2023-02-18T09:03:55.090Z,997.04
2023-02-18T09:04:55.055Z,997.13
2023-02-18T09:05:55.041Z,997.03
2023-02-18T09:06:55.054Z,997.04
2023-02-18T09:07:55.056Z,997.04
2023-02-18T09:08:55.030Z,997.06
2023-02-18T09:09:55.008Z,997.12
2023-02-18T09:10:55.009Z,997.16
2023-02-18T09:11:54.988Z,997.06
2023-02-18T09:12:55.030Z,997.08
2023-02-18T09:13:54.978Z,997.15
2023-02-18T09:14:54.975Z,997.13
2023-02-18T09:15:55.026Z,997.19
2023-02-18T09:16:54.946Z,997.17
2023-02-18T09:17:55.993Z,997.18
2023-02-18T09:18:54.952Z,997.22
2023-02-18T09:19:54.954Z,997.22
2023-02-18T09:20:54.933Z,997.16
2023-02-18T09:21:54.926Z,997.17
2023-02-18T09:22:54.941Z,997.20
2023-02-18T09:23:54.910Z,997.15
2023-02-18T09:24:54.901Z,997.16
2023-02-18T09:25:54.903Z,997.04
2023-02-18T09:26:54.913Z,997.07
2023-02-18T09:27:54.893Z,997.10
2023-02-18T09:28:54.888Z,997.11
2023-02-18T09:29:54.867Z,997.08
2023-02-18T09:30:54.919Z,997.12
2023-02-18T09:31:55.000Z,997.06
2023-02-18T09:32:54.877Z,997.03
2023-02-18T09:33:54.846Z,996.99
2023-02-18T09:34:54.826Z,997.14
2023-02-18T09:35:54.831Z,997.10
2023-02-18T09:36:54.820Z,997.01
2023-02-18T09:37:54.848Z,997.03
2023-02-18T09:38:54.785Z,996.96
2023-02-18T09:39:54.811Z,997.01
2023-02-18T09:40:54.794Z,997.06
2023-02-18T09:41:54.778Z,996.90
2023-02-18T09:42:54.752Z,997.05
2023-02-18T09:43:54.810Z,997.00
2023-02-18T09:44:54.735Z,997.03
2023-02-18T09:45:54.781Z,996.94
2023-02-18T09:46:54.730Z,997.03
2023-02-18T09:47:54.730Z,997.02
2023-02-18T09:48:54.764Z,996.95
2023-02-18T09:49:54.699Z,997.00
2023-02-18T09:50:54.711Z,997.08
2023-02-18T09:51:54.694Z,996.99
2023-02-18T09:52:54.679Z,996.89
2023-02-18T09:53:54.760Z,996.95
2023-02-18T09:54:54.723Z,997.00
2023-02-18T09:55:54.670Z,997.00
2023-02-18T09:56:54.671Z,996.98
2023-02-18T09:57:54.692Z,996.94
2023-02-18T09:58:54.661Z,996.93
2023-02-18T09:59:54.651Z,997.00
2023-02-18T10:00:54.633Z,996.98
2023-02-18T10:01:54.787Z,996.93
2023-02-18T10:02:54.614Z,996.94
2023-02-18T10:03:55.824Z,997.00
2023-02-18T10:04:55.618Z,997.01
2023-02-18T10:05:54.599Z,996.97
2023-02-18T10:06:54.605Z,996.92
2023-02-18T10:07:55.608Z,996.98
2023-02-18T10:08:54.595Z,996.93
2023-02-18T10:09:54.591Z,996.92
2023-02-18T10:10:54.560Z,996.92
2023-02-18T10:11:54.563Z,996.73
2023-02-18T10:12:54.566Z,996.85
2023-02-18T10:13:54.576Z,996.83
2023-02-18T10:14:54.534Z,996.78
2023-02-18T10:15:54.569Z,996.81
2023-02-18T10:16:55.560Z,996.84
2023-02-18T10:17:54.509Z,996.93
2023-02-18T10:18:54.558Z,996.79
2023-02-18T10:19:54.504Z,996.81
2023-02-18T10:20:54.516Z,996.81
2023-02-18T10:21:54.456Z,996.84
2023-02-18T10:22:55.455Z,996.85
2023-02-18T10:23:54.492Z,996.91
2023-02-18T10:24:54.461Z,996.89
2023-02-18T10:25:54.445Z,996.92
2023-02-18T10:26:54.434Z,996.90
2023-02-18T10:27:54.432Z,996.99
2023-02-18T10:28:54.473Z,996.89
2023-02-18T10:29:54.439Z,996.80
2023-02-18T10:30:54.458Z,996.84
2023-02-18T10:31:54.496Z,996.88
2023-02-18T10:32:54.406Z,996.93
2023-02-18T10:33:54.408Z,996.94
2023-02-18T10:34:54.372Z,996.94
2023-02-18T10:35:54.391Z,996.79
2023-02-18T10:36:54.372Z,996.74
2023-02-18T10:37:54.443Z,996.81
2023-02-18T10:38:54.375Z,996.74
2023-02-18T10:39:54.340Z,996.76
2023-02-18T10:40:54.320Z,996.71
2023-02-18T10:41:54.306Z,996.67
2023-02-18T10:42:54.317Z,996.72
2023-02-18T10:43:54.315Z,996.68
2023-02-18T10:44:54.310Z,996.68
2023-02-18T10:45:54.278Z,996.61
2023-02-18T10:46:54.265Z,996.65
2023-02-18T10:47:54.264Z,996.82
2023-02-18T10:48:54.294Z,996.56
2023-02-18T10:49:54.248Z,996.63
2023-02-18T10:50:54.260Z,996.66
2023-02-18T10:51:54.230Z,996.55
2023-02-18T10:52:54.228Z,996.47
2023-02-18T10:53:54.235Z,996.30
2023-02-18T10:54:54.253Z,996.50
2023-02-18T10:55:54.200Z,996.48
2023-02-18T10:56:54.187Z,996.49
2023-02-18T10:57:54.192Z,996.47
2023-02-18T10:58:54.199Z,996.55
2023-02-18T10:59:54.184Z,996.50
2023-02-18T11:00:54.165Z,996.52
2023-02-18T11:01:54.188Z,996.33
2023-02-18T11:02:54.146Z,996.36
2023-02-18T11:03:54.133Z,996.34
2023-02-18T11:04:54.265Z,996.34
2023-02-18T11:05:54.105Z,996.15
2023-02-18T11:06:55.123Z,996.31
2023-02-18T11:07:54.106Z,996.31
2023-02-18T11:08:54.094Z,996.29
2023-02-18T11:09:54.146Z,996.30
2023-02-18T11:10:54.089Z,996.35
2023-02-18T11:12:07.511Z,996.28
2023-02-18T11:12:55.071Z,996.34
2023-02-18T11:13:54.079Z,996.33
2023-02-18T11:14:54.068Z,996.22
2023-02-18T11:15:55.080Z,996.26
2023-02-18T11:16:54.058Z,996.18
2023-02-18T11:17:54.016Z,996.19
2023-02-18T11:18:54.012Z,996.27
2023-02-18T11:19:54.058Z,996.18
2023-02-18T11:20:53.993Z,996.26
2023-02-18T11:21:53.981Z,996.30
2023-02-18T11:22:53.992Z,996.22
2023-02-18T11:23:53.967Z,996.30
2023-02-18T11:24:54.000Z,996.37
2023-02-18T11:25:53.962Z,996.31
2023-02-18T11:26:53.956Z,996.24
2023-02-18T11:27:53.952Z,996.33
2023-02-18T11:28:53.927Z,996.29
2023-02-18T11:29:53.966Z,996.34
2023-02-18T11:30:53.939Z,996.30
2023-02-18T11:31:54.025Z,996.40
2023-02-18T11:32:53.902Z,996.26
2023-02-18T11:33:53.906Z,996.26
2023-02-18T11:34:53.888Z,996.21
2023-02-18T11:35:53.913Z,996.14
2023-02-18T11:36:53.886Z,996.10
2023-02-18T11:37:53.883Z,996.18
2023-02-18T11:38:53.858Z,996.09
2023-02-18T11:39:53.856Z,996.02
2023-02-18T11:40:53.904Z,996.15
2023-02-18T11:41:53.865Z,996.14
2023-02-18T11:42:53.828Z,996.22
2023-02-18T11:43:53.819Z,996.26
2023-02-18T11:44:53.813Z,996.30
2023-02-18T11:45:53.852Z,996.30
2023-02-18T11:46:53.870Z,996.23
2023-02-18T11:47:53.816Z,996.25
2023-02-18T11:48:53.768Z,996.24
2023-02-18T11:49:54.768Z,996.13
2023-02-18T11:50:53.842Z,996.20
2023-02-18T11:51:53.759Z,996.31
2023-02-18T11:52:53.759Z,996.26
2023-02-18T11:53:53.739Z,996.19
2023-02-18T11:54:53.742Z,996.26
2023-02-18T11:55:53.773Z,996.30
2023-02-18T11:56:53.952Z,996.40
2023-02-18T11:57:54.732Z,996.26
2023-02-18T11:58:53.702Z,996.37
2023-02-18T11:59:53.705Z,996.42
2023-02-18T12:00:53.716Z,996.22
2023-02-18T12:01:53.727Z,996.22
2023-02-18T12:02:53.716Z,996.16
2023-02-18T12:03:53.697Z,996.25
2023-02-18T12:04:53.679Z,996.24
2023-02-18T12:05:53.681Z,996.23
2023-02-18T12:06:54.648Z,996.31
2023-02-18T12:07:53.638Z,996.30
2023-02-18T12:08:53.673Z,996.13
2023-02-18T12:09:53.643Z,996.19
2023-02-18T12:10:54.660Z,996.22
2023-02-18T12:11:53.613Z,996.28
2023-02-18T12:12:53.604Z,996.29
2023-02-18T12:13:53.616Z,996.32
2023-02-18T12:14:53.585Z,996.28
2023-02-18T12:15:53.618Z,996.39
2023-02-18T12:16:53.575Z,996.37
2023-02-18T12:17:53.565Z,996.38
2023-02-18T12:18:53.577Z,996.29
2023-02-18T12:19:53.545Z,996.27
2023-02-18T12:20:53.580Z,996.28
2023-02-18T12:21:53.550Z,996.22
2023-02-18T12:22:53.541Z,996.36
2023-02-18T12:23:53.544Z,996.33
2023-02-18T12:24:53.522Z,996.35
2023-02-18T12:25:53.536Z,996.36
2023-02-18T12:26:53.501Z,996.39
2023-02-18T12:27:53.493Z,996.39
2023-02-18T12:28:53.487Z,996.46